Time;durP1;ratioP1;P1;durP2;ratioP2;P2;SDS_P1;SDS_P2;PMS_P1;PMS_P2;Temp;Humidity;BMP_temperature;BMP_pressure;BME280_temperature;BME280_humidity;BME280_pressure;Samples;Min_cycle;Max_cycle;Signal;HPM_P1;HPM_P2
2022/05/28 00:01:33;;;;;;;15.33;4.10;;;;;;;9.30;73.86;102038.09;6502581;22;20004;-78
2022/05/28 00:04:04;;;;;;;11.95;4.05;;;;;;;9.40;74.32;102033.91;6498994;22;20010;-79
2022/05/28 00:06:36;;;;;;;17.35;4.25;;;;;;;9.25;74.47;102038.91;6497981;22;20073;-78
2022/05/28 00:09:07;;;;;;;12.20;4.00;;;;;;;9.27;74.76;102030.28;6497992;23;20004;-79
2022/05/28 00:11:41;;;;;;;13.23;4.53;;;;;;;9.20;74.59;102033.63;6497967;22;20051;-79
2022/05/28 00:14:12;;;;;;;16.13;4.35;;;;;;;9.31;74.38;102024.22;6496969;22;20050;-79
2022/05/28 00:16:46;;;;;;;11.47;4.13;;;;;;;9.20;74.88;102024.97;6495325;23;20733;-79
2022/05/28 00:19:17;;;;;;;14.38;4.10;;;;;;;9.22;75.21;102023.25;6498329;22;20012;-77
2022/05/28 00:21:48;;;;;;;12.70;4.90;;;;;;;9.25;75.35;102018.94;6497494;22;20008;-79
2022/05/28 00:24:20;;;;;;;17.03;4.17;;;;;;;9.29;75.24;102019.88;6521295;22;20095;-79
2022/05/28 00:26:51;;;;;;;22.03;4.90;;;;;;;9.31;76.05;102024.22;6497772;22;20012;-78
2022/05/28 00:29:22;;;;;;;20.07;4.50;;;;;;;9.31;75.46;102015.56;6496601;22;20008;-79
2022/05/28 00:31:54;;;;;;;20.33;5.13;;;;;;;9.29;76.05;102014.69;6497124;22;20023;-78
2022/05/28 00:34:27;;;;;;;11.93;3.72;;;;;;;9.44;75.53;102004.44;6497152;22;20076;-79
2022/05/28 00:36:58;;;;;;;12.40;4.32;;;;;;;9.42;75.49;102010.50;6497498;22;20741;-80
2022/05/28 00:39:29;;;;;;;14.17;4.53;;;;;;;9.45;75.68;102008.78;6497848;22;20005;-77
2022/05/28 00:42:01;;;;;;;14.63;4.00;;;;;;;9.59;75.22;102002.84;6497392;22;20079;-77
2022/05/28 00:44:33;;;;;;;15.70;4.33;;;;;;;9.59;75.07;102008.94;6496902;22;20023;-79
2022/05/28 00:47:04;;;;;;;18.73;4.53;;;;;;;9.59;75.17;102006.31;6497244;22;20271;-78
2022/05/28 00:49:36;;;;;;;9.50;4.13;;;;;;;9.59;75.34;102011.53;6496631;22;20032;-78
2022/05/28 00:52:07;;;;;;;19.57;6.10;;;;;;;9.55;75.41;102017.56;6497572;22;20008;-77
2022/05/28 00:54:45;;;;;;;17.90;4.67;;;;;;;9.50;76.12;102016.66;6497171;22;20031;-76
2022/05/28 00:57:17;;;;;;;22.20;6.03;;;;;;;9.52;76.28;102011.47;6497085;22;20004;-78
2022/05/28 00:59:48;;;;;;;12.85;4.70;;;;;;;9.40;76.50;102000.06;6496817;22;20027;-78
2022/05/28 01:03:01;;;;;;;17.57;5.00;;;;;;;9.36;76.46;102000.00;6497642;22;20011;-79
2022/05/28 01:05:36;;;;;;;19.42;4.60;;;;;;;9.29;77.49;102004.28;6496025;22;20122;-78
2022/05/28 01:08:19;;;;;;;14.13;4.63;;;;;;;9.25;77.50;101997.25;6497210;22;20444;-78
2022/05/28 01:11:16;;;;;;;17.08;4.57;;;;;;;9.24;77.69;102000.72;6496327;22;20012;-77
2022/05/28 01:14:09;;;;;;;15.75;4.50;;;;;;;9.24;77.92;101995.50;6496575;22;20007;-76
2022/05/28 01:16:44;;;;;;;25.73;5.88;;;;;;;9.19;78.52;101991.97;6497004;23;20015;-77
2022/05/28 01:19:38;;;;;;;20.23;5.00;;;;;;;9.18;78.33;101993.72;6497015;22;20014;-79
2022/05/28 01:22:47;;;;;;;20.77;5.05;;;;;;;9.16;78.49;101992.84;6497817;23;20000;-79
2022/05/28 01:25:24;;;;;;;17.42;5.18;;;;;;;9.20;78.74;101984.19;6497695;23;20012;-79
2022/05/28 01:28:04;;;;;;;17.55;5.22;;;;;;;9.27;78.83;101988.63;6497952;22;20907;-79
2022/05/28 01:30:40;;;;;;;17.08;4.57;;;;;;;9.19;78.70;101986.78;6496745;22;20004;-79
2022/05/28 01:33:14;;;;;;;15.98;5.57;;;;;;;9.18;78.66;101988.50;6520570;22;20035;-79
2022/05/28 01:35:46;;;;;;;16.45;5.80;;;;;;;9.18;78.55;101991.13;6499025;22;20031;-77
2022/05/28 01:38:20;;;;;;;13.50;4.38;;;;;;;9.13;78.61;101977.19;6505947;22;20377;-78
2022/05/28 01:40:52;;;;;;;12.70;4.55;;;;;;;9.09;78.93;101978.00;6504963;22;20004;-75
2022/05/28 01:43:26;;;;;;;17.08;5.65;;;;;;;9.04;79.12;101977.06;6503643;22;20341;-80
2022/05/28 01:45:58;;;;;;;17.00;4.85;;;;;;;9.00;79.41;101975.25;6507076;22;20299;-79
2022/05/28 01:48:30;;;;;;;18.77;5.63;;;;;;;9.02;79.81;101977.03;6508915;22;20057;-81
2022/05/28 01:51:02;;;;;;;15.70;5.43;;;;;;;8.95;79.94;101980.41;6509169;22;20008;-78
2022/05/28 01:56:25;;;;;;;21.23;5.90;;;;;;;9.01;80.13;101985.69;6496961;23;20340;-78
2022/05/28 01:58:57;;;;;;;14.33;4.87;;;;;;;9.01;80.25;101988.28;6494413;23;20036;-77
2022/05/28 02:01:29;;;;;;;14.70;4.80;;;;;;;9.04;80.56;101977.94;6496606;22;20418;-79
2022/05/28 02:04:04;;;;;;;13.63;4.63;;;;;;;9.08;80.80;101976.22;6496274;22;20000;-79
2022/05/28 02:06:38;;;;;;;17.05;4.90;;;;;;;9.09;81.18;101980.59;6496088;22;20008;-79
2022/05/28 02:09:15;;;;;;;18.33;5.13;;;;;;;9.15;80.61;101979.81;6495896;22;20422;-79
2022/05/28 02:11:54;;;;;;;14.63;4.50;;;;;;;9.03;81.02;101985.72;6495984;22;20015;-79
2022/05/28 02:14:44;;;;;;;14.63;5.50;;;;;;;8.99;81.58;101984.81;6495849;22;20016;-77
2022/05/28 02:17:27;;;;;;;15.25;4.75;;;;;;;8.96;81.99;101983.91;6495643;23;20007;-78
2022/05/28 02:20:14;;;;;;;20.83;6.28;;;;;;;8.89;82.19;101983.81;6496242;22;20008;-78
2022/05/28 02:22:50;;;;;;;15.93;5.05;;;;;;;8.88;82.51;101983.78;6496471;22;20008;-79
2022/05/28 02:25:29;;;;;;;12.30;4.82;;;;;;;8.81;82.85;101981.97;6496542;23;20012;-79
2022/05/28 02:28:03;;;;;;;15.63;4.93;;;;;;;8.76;82.92;101982.78;6495453;23;20012;-78
2022/05/28 02:30:47;;;;;;;14.18;4.85;;;;;;;8.72;83.31;101983.56;6498009;22;20084;-78
2022/05/28 02:33:20;;;;;;;17.42;4.97;;;;;;;8.70;83.61;101985.28;6495590;22;20019;-78
2022/05/28 02:35:51;;;;;;;;;;;;;;;8.68;83.23;101975.72;6496116;22;20761;-79
2022/05/28 02:38:22;;;;;;;44.35;7.05;;;;;;;8.67;84.07;101976.56;6496494;23;20012;-77
2022/05/28 02:40:54;;;;;;;14.73;5.07;;;;;;;8.67;84.01;101976.56;6494779;23;20412;-78
2022/05/28 02:43:26;;;;;;;19.15;5.57;;;;;;;8.65;84.39;101965.28;6496385;22;20035;-77
2022/05/28 02:45:58;;;;;;;26.67;5.83;;;;;;;8.60;84.49;101973.00;6496345;22;20083;-78
2022/05/28 02:48:31;;;;;;;21.02;4.93;;;;;;;8.61;84.65;101969.53;6495179;22;20000;-78
2022/05/28 02:51:08;;;;;;;17.42;5.35;;;;;;;8.59;85.11;101966.06;6496414;22;20008;-78
2022/05/28 02:53:39;;;;;;;18.05;6.82;;;;;;;8.59;85.55;101963.47;6496254;22;20425;-78
2022/05/28 02:56:11;;;;;;;18.47;5.90;;;;;;;8.56;85.70;101966.00;6496115;22;20008;-77
2022/05/28 02:58:42;;;;;;;23.30;5.20;;;;;;;8.56;85.82;101960.81;6496932;22;20008;-78
2022/05/28 03:01:25;;;;;;;15.17;5.20;;;;;;;8.57;85.97;101954.78;6496860;22;20035;-78
2022/05/28 03:03:57;;;;;;;;;;;;;;;8.56;85.69;101963.41;6497255;22;20334;-79
2022/05/28 03:06:29;;;;;;;15.38;4.65;;;;;;;8.61;86.09;101953.94;6494945;23;19973;-78
2022/05/28 03:09:01;;;;;;;18.88;4.72;;;;;;;8.62;86.28;101953.09;6520106;22;20004;-78
2022/05/28 03:11:34;;;;;;;16.13;5.63;;;;;;;8.65;86.35;101960.09;6497391;22;20012;-79
2022/05/28 03:14:05;;;;;;;15.95;4.75;;;;;;;8.64;86.83;101955.72;6498104;22;20059;-78
2022/05/28 03:16:36;;;;;;;18.63;5.23;;;;;;;8.71;87.44;101952.34;6498319;22;20004;-77
2022/05/28 03:19:08;;;;;;;16.00;5.87;;;;;;;8.70;87.49;101959.28;6497713;22;20011;-78
2022/05/28 03:21:40;;;;;;;17.90;4.53;;;;;;;8.76;87.66;101951.56;6498020;22;20011;-78
2022/05/28 03:24:11;;;;;;;17.67;4.80;;;;;;;8.80;87.65;101956.81;6498465;22;20008;-79
2022/05/28 03:26:42;;;;;;;11.73;4.97;;;;;;;8.82;87.58;101955.09;6498187;23;20095;-79
2022/05/28 03:29:14;;;;;;;16.10;5.07;;;;;;;8.89;87.97;101967.34;6498719;22;20054;-76
2022/05/28 03:31:45;;;;;;;17.03;4.67;;;;;;;8.87;88.02;101967.31;6498308;23;20300;-78
2022/05/28 03:34:17;;;;;;;18.77;6.07;;;;;;;8.87;87.90;101962.13;6497338;22;20004;-77
2022/05/28 03:36:48;;;;;;;19.30;4.93;;;;;;;8.87;88.01;101964.72;6497860;22;20035;-78
2022/05/28 03:39:19;;;;;;;23.60;5.23;;;;;;;8.82;88.49;101962.91;6497272;22;20004;-78
2022/05/28 03:41:51;;;;;;;14.70;4.13;;;;;;;8.73;88.20;101969.72;6497439;22;20008;-79
2022/05/28 03:44:22;;;;;;;11.33;3.53;;;;;;;8.63;88.52;101962.66;6497421;22;20585;-78
2022/05/28 03:46:54;;;;;;;13.30;4.33;;;;;;;8.60;89.21;101969.53;6496979;22;20011;-78
2022/05/28 03:49:31;;;;;;;15.10;5.20;;;;;;;8.54;89.63;101965.97;6495988;22;20012;-78
2022/05/28 03:52:03;;;;;;;23.02;5.88;;;;;;;8.47;89.51;101971.97;6497396;22;20333;-78
2022/05/28 03:54:34;;;;;;;15.10;5.60;;;;;;;8.44;90.52;101971.91;6498517;22;20016;-79
2022/05/28 03:57:08;;;;;;;17.73;4.03;;;;;;;8.46;90.83;101967.59;6497214;22;20058;-76
2022/05/28 03:59:40;;;;;;;25.08;5.38;;;;;;;8.46;90.62;101972.78;6494451;23;20038;-78
2022/05/28 04:02:13;;;;;;;17.40;4.90;;;;;;;8.43;91.04;101972.75;6497665;22;20003;-77
2022/05/28 04:04:44;;;;;;;14.85;4.88;;;;;;;8.44;91.06;101981.44;6495039;23;20012;-77
2022/05/28 04:07:16;;;;;;;18.77;4.80;;;;;;;8.47;91.31;101973.66;6497041;22;20330;-77
2022/05/28 04:09:48;;;;;;;25.98;6.85;;;;;;;8.47;91.43;101979.75;6497353;22;20075;-78
2022/05/28 04:12:20;;;;;;;21.40;6.22;;;;;;;8.48;91.68;101971.09;6497489;22;20015;-78
2022/05/28 04:14:51;;;;;;;23.13;4.93;;;;;;;8.53;91.78;101987.66;6497830;22;20104;-77
2022/05/28 04:17:22;;;;;;;20.40;4.03;;;;;;;8.52;91.63;101979.81;6495380;23;20008;-77
2022/05/28 04:19:54;;;;;;;16.87;4.90;;;;;;;8.53;92.11;101978.97;6496893;23;20043;-78
2022/05/28 04:22:25;;;;;;;17.80;4.40;;;;;;;8.56;92.25;101981.59;6496745;22;20004;-78
2022/05/28 04:24:56;;;;;;;16.20;6.03;;;;;;;8.61;92.11;101984.28;6497468;22;20061;-77
2022/05/28 04:27:28;;;;;;;14.90;5.23;;;;;;;8.68;92.32;101988.72;6497168;23;20008;-78
2022/05/28 04:30:00;;;;;;;17.60;5.47;;;;;;;8.76;92.39;101989.69;6497149;22;20015;-79
2022/05/28 04:32:31;;;;;;;18.03;5.83;;;;;;;8.84;92.14;101997.59;6497008;22;20058;-79
2022/05/28 04:35:03;;;;;;;27.47;5.83;;;;;;;8.91;92.24;101991.63;6496399;22;20506;-78
2022/05/28 04:37:34;;;;;;;18.03;5.20;;;;;;;8.96;92.03;101986.50;6496976;22;20017;-79
2022/05/28 04:40:07;;;;;;;14.97;4.43;;;;;;;9.02;92.43;101992.66;6498075;22;20030;-79
2022/05/28 04:42:38;;;;;;;;;;;;;;;9.05;91.79;101994.44;6497634;22;20008;-79
2022/05/28 04:45:10;;;;;;;17.15;5.30;;;;;;;9.18;91.89;101993.72;6497050;23;19919;-79
2022/05/28 04:47:41;;;;;;;18.53;5.50;;;;;;;9.20;91.56;101983.34;6497262;22;20378;-78
2022/05/28 04:50:13;;;;;;;22.40;5.03;;;;;;;9.23;91.65;101994.66;6496404;22;20015;-79
2022/05/28 04:52:44;;;;;;;14.50;3.63;;;;;;;9.27;91.59;101992.94;6497054;22;20027;-79
2022/05/28 04:55:16;;;;;;;21.03;6.17;;;;;;;9.28;91.78;101997.31;6496885;22;20007;-79
2022/05/28 04:57:48;;;;;;;15.60;4.30;;;;;;;9.29;91.97;101991.25;6496842;22;20456;-79
2022/05/28 05:00:22;;;;;;;15.43;4.28;;;;;;;9.41;91.80;101999.19;6496469;22;20587;-80
2022/05/28 05:02:53;;;;;;;19.38;5.22;;;;;;;9.43;91.71;102005.28;6496745;22;20018;-79
2022/05/28 05:05:25;;;;;;;15.83;4.33;;;;;;;9.48;91.45;102013.13;6497466;22;20425;-79
2022/05/28 05:07:56;;;;;;;18.83;5.33;;;;;;;9.54;91.33;102009.75;6496847;22;20418;-78
2022/05/28 05:10:27;;;;;;;12.77;4.83;;;;;;;9.58;91.47;102006.31;6496936;22;20662;-79
2022/05/28 05:13:00;;;;;;;18.20;4.00;;;;;;;9.62;90.80;102015.91;6496762;22;20008;-79
2022/05/28 05:15:32;;;;;;;16.98;4.07;;;;;;;9.69;91.08;102015.09;6496826;22;20418;-79
2022/05/28 05:18:03;;;;;;;19.43;5.13;;;;;;;9.75;91.05;102015.16;6497030;22;20008;-79
2022/05/28 05:20:35;;;;;;;18.50;5.33;;;;;;;9.83;90.53;102013.50;6496819;22;20008;-80
2022/05/28 05:23:06;;;;;;;13.20;4.43;;;;;;;9.88;90.36;102020.50;6497066;22;20012;-80
2022/05/28 05:25:38;;;;;;;14.63;3.73;;;;;;;9.96;89.98;102018.84;6497467;22;19999;-80
2022/05/28 05:28:09;;;;;;;12.70;3.80;;;;;;;10.00;89.73;102018.91;6497349;22;20059;-80
2022/05/28 05:30:41;;;;;;;14.27;4.43;;;;;;;10.13;89.01;102019.03;6496900;22;20040;-81
2022/05/28 05:33:12;;;;;;;14.33;4.30;;;;;;;10.25;88.53;102026.06;6496331;22;20434;-80
2022/05/28 05:35:43;;;;;;;17.33;3.33;;;;;;;10.34;87.84;102028.78;6496556;22;20389;-82
2022/05/28 05:38:15;;;;;;;12.10;3.00;;;;;;;10.44;87.42;102029.72;6496368;22;20004;-80
2022/05/28 05:40:46;;;;;;;20.40;3.53;;;;;;;10.53;86.02;102035.03;6494036;22;20004;-81
2022/05/28 05:43:18;;;;;;;10.70;2.90;;;;;;;10.58;85.77;102033.31;6496013;23;20008;-79
2022/05/28 05:46:00;;;;;;;12.85;3.05;;;;;;;10.68;84.44;102032.50;6496475;22;20031;-80
2022/05/28 05:48:31;;;;;;;17.30;3.33;;;;;;;10.75;84.21;102038.63;6494887;22;20385;-81
2022/05/28 05:51:12;;;;;;;10.80;2.93;;;;;;;10.85;81.46;102037.84;6496706;22;20004;-83
2022/05/28 05:53:43;;;;;;;10.57;3.30;;;;;;;10.92;80.09;102033.53;6496424;22;20008;-81
2022/05/28 05:56:14;;;;;;;13.37;3.07;;;;;;;11.03;78.73;102044.91;6492425;22;20008;-80
2022/05/28 05:58:46;;;;;;;10.43;2.20;;;;;;;11.13;77.92;102038.84;6493160;22;20083;-82
2022/05/28 06:01:17;;;;;;;11.07;2.43;;;;;;;11.19;76.82;102032.81;6496744;22;20012;-79
2022/05/28 06:03:49;;;;;;;9.80;2.17;;;;;;;11.28;74.74;102038.03;6496818;22;20014;-82
2022/05/28 06:06:21;;;;;;;10.03;2.23;;;;;;;11.45;75.04;102037.28;6496411;22;20008;-82
2022/05/28 06:08:52;;;;;;;10.65;2.55;;;;;;;11.56;72.88;102040.78;6496702;22;20074;-78
2022/05/28 06:11:25;;;;;;;11.90;2.83;;;;;;;11.72;73.31;102035.59;6496505;22;20012;-80
2022/05/28 06:13:56;;;;;;;7.55;2.05;;;;;;;11.93;73.02;102040.91;6498284;22;20702;-79
2022/05/28 06:16:28;;;;;;;11.73;2.87;;;;;;;12.20;70.70;102044.41;6499157;22;20014;-80
2022/05/28 06:18:59;;;;;;;6.53;2.00;;;;;;;12.31;69.72;102047.03;6497733;22;20058;-81
2022/05/28 06:21:30;;;;;;;10.70;2.77;;;;;;;12.31;69.22;102045.28;6499625;22;20004;-79
2022/05/28 06:24:07;;;;;;;13.50;2.33;;;;;;;12.18;68.98;102046.16;6499891;22;20034;-85
2022/05/28 06:26:39;;;;;;;10.13;2.50;;;;;;;12.03;69.39;102045.28;6474860;23;20381;-84
2022/05/28 06:29:10;;;;;;;9.97;2.07;;;;;;;12.10;69.51;102046.16;6499452;22;20075;-82
2022/05/28 06:31:42;;;;;;;10.90;2.60;;;;;;;12.20;69.49;102053.16;6501998;22;20099;-82
2022/05/28 06:34:14;;;;;;;10.80;2.23;;;;;;;12.31;69.06;102044.41;6510615;22;20018;-82
2022/05/28 06:36:45;;;;;;;10.95;2.55;;;;;;;12.30;67.70;102051.41;6505701;22;20058;-79
2022/05/28 06:39:16;;;;;;;10.10;2.20;;;;;;;12.38;67.89;102046.16;6514538;22;20004;-81
2022/05/28 06:41:48;;;;;;;8.00;2.63;;;;;;;12.41;66.20;102054.00;6512423;22;20068;-82
2022/05/28 06:44:19;;;;;;;10.70;2.13;;;;;;;12.42;65.16;102054.91;6511468;22;20007;-79
2022/05/28 06:46:51;;;;;;;12.27;2.33;;;;;;;12.42;65.19;102049.66;6513927;22;20012;-80
2022/05/28 06:49:22;;;;;;;5.90;1.87;;;;;;;12.49;64.63;102067.94;6515815;22;20087;-82
2022/05/28 06:51:54;;;;;;;7.33;1.90;;;;;;;12.40;64.23;102066.22;6499537;22;20080;-83
2022/05/28 06:54:25;;;;;;;9.07;2.47;;;;;;;12.26;64.34;102059.25;6498868;22;20094;-80
2022/05/28 06:56:56;;;;;;;8.53;2.00;;;;;;;12.27;64.95;102058.34;6498744;22;20012;-79
2022/05/28 06:59:28;;;;;;;8.10;1.70;;;;;;;12.24;64.11;102061.00;6497397;22;20011;-82
2022/05/28 07:01:59;;;;;;;10.50;2.00;;;;;;;12.32;64.15;102062.72;6499255;22;20085;-82
2022/05/28 07:04:30;;;;;;;7.73;2.03;;;;;;;12.54;63.07;102066.22;6498234;22;20019;-80
2022/05/28 07:07:02;;;;;;;8.80;2.10;;;;;;;12.73;62.49;102060.97;6497510;22;20421;-80
2022/05/28 07:09:33;;;;;;;11.33;2.17;;;;;;;13.05;61.99;102060.03;6498750;22;20004;-82
2022/05/28 07:12:05;;;;;;;9.47;2.40;;;;;;;13.27;60.87;102064.31;6501359;22;20090;-82
2022/05/28 07:14:36;;;;;;;10.23;2.70;;;;;;;13.49;58.98;102074.75;6495105;22;20022;-82
2022/05/28 07:17:07;;;;;;;8.70;2.10;;;;;;;13.38;57.37;102077.41;6498558;22;20433;-80
2022/05/28 07:19:41;;;;;;;8.17;1.87;;;;;;;13.61;57.81;102065.97;6500776;22;20004;-78
2022/05/28 07:22:13;;;;;;;7.80;2.10;;;;;;;13.70;56.37;102058.06;6501154;22;20034;-81
2022/05/28 07:24:44;;;;;;;9.57;2.00;;;;;;;13.78;56.16;102068.47;6497952;22;20016;-78
2022/05/28 07:27:16;;;;;;;10.13;1.80;;;;;;;13.86;56.84;102062.34;6503352;22;20073;-83
2022/05/28 07:29:47;;;;;;;6.88;2.08;;;;;;;13.76;54.66;102067.63;6498423;23;20390;-78
2022/05/28 07:32:25;;;;;;;5.13;1.60;;;;;;;13.93;55.98;102065.78;6498981;23;20024;-82
2022/05/28 07:34:57;;;;;;;7.95;1.90;;;;;;;14.00;56.20;102061.38;6497975;22;20418;-80
2022/05/28 07:37:30;;;;;;;8.73;2.67;;;;;;;14.21;56.20;102068.22;6499804;22;20107;-82
2022/05/28 07:40:03;;;;;;;6.35;1.70;;;;;;;14.36;55.09;102077.72;6498165;22;20079;-80
2022/05/28 07:42:34;;;;;;;10.80;1.92;;;;;;;14.87;55.30;102077.31;6497632;22;20007;-80
2022/05/28 07:45:06;;;;;;;8.70;2.10;;;;;;;14.71;53.34;102069.56;6497546;22;20004;-80
2022/05/28 07:47:38;;;;;;;12.38;2.65;;;;;;;14.77;53.80;102073.91;6498383;22;20016;-82
2022/05/28 07:50:09;;;;;;;3.93;1.60;;;;;;;14.57;51.93;102068.78;6497708;22;20039;-80
2022/05/28 07:52:40;;;;;;;8.57;2.10;;;;;;;14.82;52.96;102066.84;6497917;22;20019;-80
2022/05/28 07:55:13;;;;;;;8.03;1.90;;;;;;;15.14;53.25;102074.38;6497855;22;20008;-81
2022/05/28 07:57:44;;;;;;;6.60;1.90;;;;;;;15.24;52.36;102069.88;6497765;22;20078;-80
2022/05/28 08:00:16;;;;;;;7.87;2.37;;;;;;;15.48;52.69;102065.22;6498082;22;20377;-80
2022/05/28 08:02:48;;;;;;;8.60;1.70;;;;;;;15.49;50.93;102066.97;6497851;22;20074;-80
2022/05/28 08:05:19;;;;;;;7.93;1.60;;;;;;;15.65;52.85;102063.25;6497912;22;20040;-79
2022/05/28 08:07:51;;;;;;;6.27;2.10;;;;;;;15.62;49.38;102068.53;6497832;22;20246;-79
2022/05/28 08:10:22;;;;;;;6.63;1.80;;;;;;;15.59;48.40;102058.06;6498555;22;20338;-81
2022/05/28 08:12:54;;;;;;;7.57;2.05;;;;;;;15.80;49.92;102056.06;6497871;22;20011;-81
2022/05/28 08:15:25;;;;;;;6.57;2.20;;;;;;;15.86;48.59;102056.00;6498251;22;20060;-80
2022/05/28 08:17:57;;;;;;;9.47;2.53;;;;;;;15.59;48.07;102060.69;6498127;22;20004;-79
2022/05/28 08:23:19;;;;;;;8.25;1.90;;;;;;;15.29;49.82;102057.59;6497626;23;20016;-81
2022/05/28 08:25:50;;;;;;;4.73;1.90;;;;;;;14.73;50.78;102065.19;6498174;22;20004;-79
2022/05/28 08:28:22;;;;;;;8.97;1.83;;;;;;;14.41;51.12;102061.06;6497451;22;20030;-78
2022/05/28 08:30:53;;;;;;;9.70;2.33;;;;;;;14.14;52.48;102056.91;6497175;22;20501;-80
2022/05/28 08:33:25;;;;;;;10.40;2.27;;;;;;;14.47;53.36;102060.13;6497521;22;20095;-80
2022/05/28 08:35:56;;;;;;;10.03;2.70;;;;;;;14.31;53.25;102062.03;6497501;23;20015;-81
2022/05/28 08:38:28;;;;;;;10.43;2.20;;;;;;;14.16;52.53;102063.00;6497175;22;20049;-80
2022/05/28 08:41:06;;;;;;;7.63;2.20;;;;;;;14.42;51.72;102061.94;6495725;23;20007;-80
2022/05/28 08:43:42;;;;;;;7.28;2.05;;;;;;;14.73;50.42;102069.53;6495368;23;20023;-80
2022/05/28 08:46:16;;;;;;;5.53;1.98;;;;;;;14.64;51.04;102067.03;6497124;22;20039;-80
2022/05/28 08:48:53;;;;;;;8.75;2.63;;;;;;;14.83;50.43;102065.06;6496750;22;20426;-78
2022/05/28 08:51:32;;;;;;;4.95;1.58;;;;;;;15.13;49.73;102059.53;6497588;22;20338;-80
2022/05/28 08:54:28;;;;;;;11.95;2.80;;;;;;;15.64;50.10;102065.91;6496792;22;20012;-79
2022/05/28 08:57:07;;;;;;;6.03;1.60;;;;;;;15.60;46.77;102058.94;6497236;22;20081;-80
2022/05/28 08:59:50;;;;;;;9.55;2.60;;;;;;;15.50;47.38;102063.44;6496827;22;20008;-80
2022/05/28 09:02:49;;;;;;;9.50;1.95;;;;;;;15.97;47.78;102058.44;6519647;22;20016;-81
2022/05/28 09:05:25;;;;;;;5.15;1.83;;;;;;;16.73;46.29;102051.06;6497956;22;20015;-81
2022/05/28 09:08:00;;;;;;;9.98;2.22;;;;;;;16.71;44.86;102059.84;6497136;22;20000;-79
2022/05/28 09:10:45;;;;;;;10.65;2.67;;;;;;;16.62;45.80;102055.63;6496945;22;20007;-79
2022/05/28 09:13:28;;;;;;;6.85;2.17;;;;;;;15.79;45.97;102060.47;6492279;22;20329;-79
2022/05/28 09:16:02;;;;;;;11.65;3.22;;;;;;;15.57;47.53;102059.84;6496661;22;20000;-79
2022/05/28 09:18:36;;;;;;;6.53;1.88;;;;;;;15.56;47.75;102058.09;6493879;23;20015;-80
2022/05/28 09:21:13;;;;;;;8.52;1.65;;;;;;;16.06;47.78;102053.06;6496360;22;20014;-80
2022/05/28 09:23:57;;;;;;;9.57;2.10;;;;;;;15.81;48.55;102069.19;6496736;22;20094;-80
2022/05/28 09:26:37;;;;;;;8.48;2.60;;;;;;;15.40;49.49;102046.91;6495498;22;20069;-80
2022/05/28 09:29:42;;;;;;;13.88;2.78;;;;;;;16.07;49.79;102051.28;6496093;22;20307;-80
2022/05/28 09:32:28;;;;;;;7.63;2.42;;;;;;;16.48;48.80;102049.75;6497398;22;20091;-79
2022/05/28 09:35:21;;;;;;;13.45;2.55;;;;;;;16.60;46.27;102041.66;6498043;22;20007;-79
2022/05/28 09:38:07;;;;;;;11.40;2.28;;;;;;;16.84;44.28;102048.22;6498708;23;20004;-80
2022/05/28 09:40:55;;;;;;;6.95;1.90;;;;;;;16.89;40.99;102046.41;6495925;23;20043;-81
2022/05/28 09:43:56;;;;;;;8.07;2.25;;;;;;;16.74;42.08;102046.63;6497383;22;20004;-80
2022/05/28 09:46:30;;;;;;;4.90;1.50;;;;;;;16.64;43.92;102039.81;6497799;22;20008;-81
2022/05/28 09:49:05;;;;;;;4.30;1.88;;;;;;;16.82;43.32;102050.00;6495776;23;20019;-78
2022/05/28 09:51:38;;;;;;;8.23;2.00;;;;;;;16.61;42.18;102051.25;6494122;22;20012;-80
2022/05/28 09:54:23;;;;;;;7.47;2.00;;;;;;;16.69;43.12;102041.47;6497543;22;20437;-82
2022/05/28 09:57:03;;;;;;;7.10;1.67;;;;;;;17.25;41.21;102040.44;6497710;23;20449;-76
2022/05/28 10:00:04;;;;;;;8.63;2.85;;;;;;;17.45;42.00;102042.63;6495287;22;20019;-80
2022/05/28 10:04:28;;;;;;;8.25;2.28;;;;;;;18.13;41.49;102042.00;6462365;23;20009;-80
2022/05/28 10:05:52;;;;;;;8.43;2.28;;;;;;;17.00;42.83;102034.78;6462836;23;20401;-80
2022/05/28 10:08:31;;;;;;;11.60;2.17;;;;;;;17.57;42.39;102046.78;6462546;23;20009;-79
2022/05/28 10:11:05;;;;;;;5.18;1.95;;;;;;;18.14;43.73;102037.59;6462375;23;20070;-79
2022/05/28 10:13:48;;;;;;;10.63;2.15;;;;;;;19.44;39.16;102037.63;6460268;23;20047;-79
2022/05/28 10:16:31;;;;;;;8.57;2.28;;;;;;;20.92;37.74;102033.66;6461996;23;20009;-79
2022/05/28 10:19:03;;;;;;;10.95;2.47;;;;;;;20.90;35.27;102032.00;6435759;23;20013;-78
2022/05/28 10:21:39;;;;;;;12.07;2.30;;;;;;;19.78;37.53;102039.25;6462668;23;20039;-80
2022/05/28 10:24:17;;;;;;;8.80;2.80;;;;;;;18.00;39.14;102043.19;6463142;23;20012;-79
2022/05/28 10:26:53;;;;;;;6.95;2.05;;;;;;;19.11;36.12;102045.59;6463922;23;20009;-80
2022/05/28 10:29:40;;;;;;;6.05;1.95;;;;;;;19.77;34.58;102038.41;6464401;23;20012;-79
2022/05/28 10:32:37;;;;;;;6.57;2.03;;;;;;;21.05;34.60;102023.47;6463640;23;20062;-79
2022/05/28 10:35:11;;;;;;;6.25;2.03;;;;;;;21.44;31.42;102025.50;6463524;23;20078;-81
2022/05/28 10:37:43;;;;;;;7.60;2.08;;;;;;;22.08;31.50;102025.69;6463372;23;20013;-80
2022/05/28 10:40:24;;;;;;;9.57;2.30;;;;;;;21.65;32.21;102036.25;6489237;23;20500;-80
2022/05/28 10:43:01;;;;;;;6.65;2.22;;;;;;;19.23;32.53;102031.19;6499036;22;20380;-79
2022/05/28 10:45:41;;;;;;;5.45;1.80;;;;;;;19.99;32.56;102022.69;6498085;22;20317;-79
2022/05/28 10:48:33;;;;;;;7.18;2.00;;;;;;;20.85;31.51;102029.50;6498813;22;20035;-81
2022/05/28 10:51:41;;;;;;;11.60;2.45;;;;;;;22.78;29.94;102027.13;6498090;22;20008;-80
2022/05/28 10:54:31;;;;;;;8.30;1.92;;;;;;;21.76;28.58;102023.41;6498666;23;20311;-79
2022/05/28 10:57:27;;;;;;;6.45;1.98;;;;;;;22.68;28.83;102023.16;6498501;23;20004;-78
2022/05/28 11:00:01;;;;;;;5.07;1.52;;;;;;;24.88;26.70;102022.34;6498631;22;20042;-77
2022/05/28 11:02:54;;;;;;;8.07;1.83;;;;;;;26.04;26.75;102021.28;6497674;22;20011;-79
2022/05/28 11:05:44;;;;;;;6.70;2.15;;;;;;;23.84;25.92;102022.25;6498025;23;20012;-79
2022/05/28 11:08:30;;;;;;;5.78;1.73;;;;;;;24.30;25.01;102018.22;6498713;22;20449;-81
2022/05/28 11:11:27;;;;;;;4.93;1.80;;;;;;;25.53;25.32;102013.47;6498113;22;20051;-79
2022/05/28 11:14:25;;;;;;;5.68;1.63;;;;;;;25.60;24.13;102014.81;6498070;22;20022;-80
2022/05/28 11:17:03;;;;;;;8.15;2.00;;;;;;;26.23;25.76;102013.88;6498073;22;20425;-79
2022/05/28 11:19:48;;;;;;;6.65;2.05;;;;;;;23.75;25.72;102024.47;6498308;22;20422;-79
2022/05/28 11:23:02;;;;;;;9.65;2.65;;;;;;;21.39;30.00;102018.69;6498000;22;20428;-79
2022/05/28 11:26:02;;;;;;;4.85;1.73;;;;;;;23.91;27.80;102008.63;6463086;23;20430;-79
2022/05/28 11:29:07;;;;;;;7.18;1.75;;;;;;;23.54;24.09;102011.25;6462879;23;20009;-79
2022/05/28 11:31:43;;;;;;;4.10;1.80;;;;;;;23.59;25.82;102009.25;6462092;23;20063;-80
2022/05/28 11:34:48;;;;;;;6.80;1.77;;;;;;;25.35;24.39;102000.22;6462595;23;20013;-79
2022/05/28 11:37:28;;;;;;;6.55;1.80;;;;;;;23.39;25.30;102007.50;6463379;23;20347;-81
2022/05/28 11:40:10;;;;;;;4.63;1.60;;;;;;;21.34;28.85;102002.94;6463078;23;20362;-80
2022/05/28 11:43:05;;;;;;;6.07;2.22;;;;;;;23.90;27.57;101991.78;6462809;23;20012;-81
2022/05/28 11:45:48;;;;;;;5.43;1.98;;;;;;;25.36;23.38;101988.59;6462786;23;20366;-79
2022/05/28 11:51:41;;;;;;;6.35;1.60;;;;;;;22.71;25.57;101997.31;6463311;23;20020;-79
2022/05/28 11:54:22;;;;;;;8.07;2.20;;;;;;;23.16;25.14;101995.31;6462249;23;20020;-79
2022/05/28 11:56:59;;;;;;;6.97;1.80;;;;;;;22.73;25.19;102007.88;6463422;23;20828;-80
2022/05/28 11:59:33;;;;;;;7.30;2.00;;;;;;;23.88;24.78;101988.34;6463161;23;20008;-78
2022/05/28 12:02:12;;;;;;;6.78;1.80;;;;;;;25.07;24.19;101977.69;6479863;23;20012;-81
2022/05/28 12:04:44;;;;;;;7.35;2.20;;;;;;;25.03;22.23;101977.94;6497486;22;20437;-80
2022/05/28 12:07:36;;;;;;;6.28;2.45;;;;;;;25.95;22.15;101963.84;6498297;23;20066;-80
2022/05/28 12:10:27;;;;;;;6.90;1.98;;;;;;;22.76;24.53;101979.38;6497740;22;20389;-81
2022/05/28 12:13:01;;;;;;;5.45;1.85;;;;;;;23.89;24.21;101970.56;6497870;22;20008;-80
2022/05/28 12:15:35;;;;;;;6.18;1.80;;;;;;;23.42;23.65;101970.13;6497399;22;20054;-79